Time;durP1;ratioP1;P1;durP2;ratioP2;P2;SDS_P1;SDS_P2;PMS_P1;PMS_P2;Temp;Humidity;BMP_temperature;BMP_pressure;BME280_temperature;BME280_humidity;BME280_pressure;Samples;Min_cycle;Max_cycle;Signal;HPM_P1;HPM_P2
2022/03/27 00:00:59;;;;;;;23.77;11.12;;;;;;;12.91;29.68;100742.66;7711327;32;37911;-71
2022/03/27 00:05:15;;;;;;;26.33;12.93;;;;;;;12.93;29.66;100735.00;7711572;32;40113;-71
2022/03/27 00:09:31;;;;;;;22.50;11.75;;;;;;;12.83;29.83;100737.66;7711455;32;39904;-72
2022/03/27 00:13:47;;;;;;;27.00;12.57;;;;;;;12.80;29.87;100746.38;7711494;32;38002;-72
2022/03/27 00:18:03;;;;;;;26.42;13.45;;;;;;;12.56;30.31;100738.59;7711337;32;37946;-71
2022/03/27 00:22:20;;;;;;;25.42;12.73;;;;;;;12.65;30.26;100734.25;7711285;32;40078;-71
2022/03/27 00:26:36;;;;;;;29.80;13.65;;;;;;;12.36;30.89;100723.62;7711301;32;39878;-72
2022/03/27 00:30:53;;;;;;;33.35;14.80;;;;;;;12.14;31.29;100736.56;7711236;32;38034;-72
2022/03/27 00:35:09;;;;;;;31.87;13.85;;;;;;;11.98;31.76;100728.22;7711363;32;37470;-71
2022/03/27 00:39:25;;;;;;;26.77;12.65;;;;;;;11.63;32.52;100718.53;7711190;32;39482;-71
2022/03/27 00:43:41;;;;;;;24.40;12.32;;;;;;;12.17;31.46;100728.66;7711090;32;39985;-72
2022/03/27 00:47:58;;;;;;;25.15;12.27;;;;;;;12.27;31.22;100717.00;7711062;32;38702;-72
2022/03/27 00:52:14;;;;;;;28.05;13.35;;;;;;;12.25;31.34;100716.44;7711018;32;37301;-71
2022/03/27 00:56:31;;;;;;;30.90;13.52;;;;;;;12.23;31.44;100717.78;7711032;32;39644;-72
2022/03/27 01:01:09;;;;;;;25.48;13.70;;;;;;;12.25;31.43;100721.91;7710065;32;40813;-72
2022/03/27 01:05:28;;;;;;;26.00;12.60;;;;;;;12.36;31.43;100728.28;7710798;32;37875;-72
2022/03/27 01:09:45;;;;;;;24.85;12.90;;;;;;;12.11;31.94;100737.94;7710763;32;37214;-72
2022/03/27 01:14:01;;;;;;;23.42;12.60;;;;;;;12.04;32.19;100737.31;7710781;32;39907;-71
2022/03/27 01:18:18;;;;;;;32.20;14.90;;;;;;;11.93;32.41;100739.09;7710503;32;39986;-71
2022/03/27 01:22:34;;;;;;;26.65;14.05;;;;;;;11.84;32.60;100748.81;7710660;32;38633;-72
2022/03/27 01:26:50;;;;;;;29.67;14.93;;;;;;;11.92;32.36;100751.12;7710483;32;37036;-72
2022/03/27 01:31:07;;;;;;;30.80;14.35;;;;;;;11.85;32.59;100745.00;7710403;32;40098;-73
2022/03/27 01:35:23;;;;;;;26.80;13.15;;;;;;;11.73;32.92;100752.50;7710260;32;39899;-71
2022/03/27 01:39:39;;;;;;;28.30;14.07;;;;;;;11.67;33.24;100767.19;7710094;32;38054;-71
2022/03/27 01:43:55;;;;;;;32.75;13.75;;;;;;;11.55;34.07;100768.16;7710115;32;38428;-72
2022/03/27 01:48:12;;;;;;;29.95;13.00;;;;;;;11.83;33.51;100764.38;7710014;32;39306;-71
2022/03/27 01:52:28;;;;;;;30.45;13.60;;;;;;;11.80;33.60;100756.69;7709866;32;40628;-71
2022/03/27 01:56:44;;;;;;;27.58;13.23;;;;;;;11.94;33.16;100754.41;7709898;32;37974;-72
2022/03/27 02:01:00;;;;;;;26.23;13.18;;;;;;;11.99;33.25;100756.41;7709298;32;37970;-71
2022/03/27 02:05:17;;;;;;;26.35;12.32;;;;;;;11.95;33.48;100760.69;7709184;32;40203;-71
2022/03/27 02:09:37;;;;;;;26.65;13.27;;;;;;;11.79;34.29;100768.69;7709462;32;40076;-72
2022/03/27 02:13:54;;;;;;;26.70;12.68;;;;;;;11.88;34.63;100770.97;7712202;32;37915;-71
2022/03/27 02:18:10;;;;;;;26.70;12.63;;;;;;;11.73;34.97;100764.28;7712833;32;37787;-71
2022/03/27 02:22:26;;;;;;;23.87;12.95;;;;;;;11.77;34.81;100772.78;7699099;32;39351;-72
2022/03/27 02:26:45;;;;;;;31.02;13.07;;;;;;;11.60;35.01;100772.84;7712652;32;40791;-72
2022/03/27 02:31:01;;;;;;;35.60;13.50;;;;;;;11.72;34.27;100789.13;7712625;32;38089;-72
2022/03/27 02:35:18;;;;;;;28.40;13.77;;;;;;;11.70;34.17;100792.09;7712724;32;38669;-71
2022/03/27 02:39:34;;;;;;;30.58;13.45;;;;;;;11.65;34.12;100795.59;7712579;32;40008;-71
2022/03/27 02:43:50;;;;;;;27.20;13.25;;;;;;;11.24;34.92;100795.03;7686354;32;39945;-71
2022/03/27 02:48:07;;;;;;;26.12;12.95;;;;;;;11.28;34.76;100788.03;7712504;32;38172;-71
2022/03/27 02:52:23;;;;;;;30.88;12.52;;;;;;;11.26;34.83;100801.09;7712476;32;37915;-71
2022/03/27 02:56:39;;;;;;;25.83;12.82;;;;;;;11.07;35.16;100811.47;7712448;32;39299;-71
2022/03/27 03:00:56;;;;;;;24.73;12.25;;;;;;;11.04;35.25;100811.97;7712184;32;41224;-72
2022/03/27 03:05:13;;;;;;;26.80;13.00;;;;;;;11.00;35.36;100816.25;7712220;32;38003;-71
2022/03/27 03:09:29;;;;;;;26.05;12.95;;;;;;;11.06;35.49;100819.91;7712332;32;37248;-71
2022/03/27 03:13:46;;;;;;;25.12;12.57;;;;;;;10.94;36.04;100819.19;7712142;32;40053;-71
2022/03/27 03:18:03;;;;;;;22.00;12.90;;;;;;;10.77;36.69;100827.34;7712101;32;39726;-71
2022/03/27 03:22:20;;;;;;;26.50;13.23;;;;;;;10.78;36.87;100829.00;7697914;32;38107;-71
2022/03/27 03:26:36;;;;;;;29.35;12.73;;;;;;;10.72;37.43;100833.53;7698353;32;37745;-72
2022/03/27 03:30:52;;;;;;;24.63;12.80;;;;;;;10.60;38.19;100840.97;7711990;32;39499;-70
2022/03/27 03:35:09;;;;;;;30.65;13.73;;;;;;;10.78;37.93;100840.75;7711948;32;39872;-72
2022/03/27 03:39:48;;;;;;;29.25;13.98;;;;;;;10.46;38.57;100840.47;7705151;32;38371;-72
2022/03/27 03:44:04;;;;;;;32.50;13.62;;;;;;;10.43;38.28;100830.88;7711880;32;37880;-71
2022/03/27 03:48:20;;;;;;;29.40;13.65;;;;;;;10.65;37.37;100836.44;7711811;32;39255;-71
2022/03/27 03:52:36;;;;;;;27.00;13.35;;;;;;;10.67;37.13;100836.19;7711680;32;39879;-71
2022/03/27 03:56:52;;;;;;;25.20;12.27;;;;;;;10.60;36.93;100840.97;7711377;32;38136;-71
2022/03/27 04:01:08;;;;;;;25.70;12.18;;;;;;;10.29;37.61;100843.13;7711433;32;37334;-71
2022/03/27 04:05:25;;;;;;;26.80;13.13;;;;;;;10.31;37.63;100854.59;7697973;32;39270;-71
2022/03/27 04:09:41;;;;;;;33.90;12.55;;;;;;;10.40;37.47;100865.97;7711445;32;39876;-72
2022/03/27 04:13:57;;;;;;;24.77;12.02;;;;;;;10.33;37.58;100863.38;7711376;32;38733;-71
2022/03/27 04:18:13;;;;;;;26.17;12.68;;;;;;;10.50;37.32;100864.28;7711421;32;37982;-72
2022/03/27 04:22:29;;;;;;;24.90;12.35;;;;;;;10.34;37.93;100867.78;7711384;32;39415;-72
2022/03/27 04:26:46;;;;;;;26.92;12.88;;;;;;;10.38;38.13;100874.37;7705255;32;39886;-72
2022/03/27 04:31:02;;;;;;;25.83;12.68;;;;;;;10.39;38.35;100875.22;7711252;32;37953;-71
2022/03/27 04:35:18;;;;;;;25.33;13.20;;;;;;;10.51;38.58;100879.53;7710468;32;37157;-72
2022/03/27 04:39:34;;;;;;;22.55;11.50;;;;;;;9.65;39.78;100911.28;7711073;32;40199;-71
2022/03/27 04:43:50;;;;;;;24.35;11.38;;;;;;;9.67;41.54;100906.44;7711265;32;39835;-70
2022/03/27 04:48:06;;;;;;;21.92;12.52;;;;;;;9.55;41.96;100904.56;7711171;32;37957;-71
2022/03/27 04:52:22;;;;;;;25.40;12.57;;;;;;;9.32;42.92;100912.72;7711102;32;37289;-72
2022/03/27 04:56:38;;;;;;;27.25;13.18;;;;;;;9.35;41.57;100918.50;7711063;32;40156;-71
2022/03/27 05:00:54;;;;;;;31.77;12.98;;;;;;;9.56;41.09;100916.25;7710722;32;40195;-72
2022/03/27 05:05:12;;;;;;;29.05;13.13;;;;;;;9.49;41.24;100921.81;7710753;32;37936;-71
2022/03/27 05:09:28;;;;;;;28.65;12.50;;;;;;;9.64;40.91;100923.22;7710920;32;37733;-71
2022/03/27 05:13:44;;;;;;;23.75;12.43;;;;;;;9.59;40.79;100926.69;7710805;32;39308;-71
2022/03/27 05:18:00;;;;;;;26.40;13.02;;;;;;;9.55;41.05;100929.06;7710701;32;40769;-72
2022/03/27 05:22:17;;;;;;;26.80;12.57;;;;;;;9.81;40.31;100945.13;7710460;32;38030;-71
2022/03/27 05:26:33;;;;;;;25.52;13.20;;;;;;;9.86;40.26;100953.41;7710467;32;38258;-71
2022/03/27 05:30:49;;;;;;;29.65;13.90;;;;;;;9.84;40.31;100961.00;7710448;32;40206;-71
2022/03/27 05:35:07;;;;;;;28.23;13.98;;;;;;;9.86;40.49;100956.13;7710342;32;39909;-71
2022/03/27 05:39:23;;;;;;;36.50;14.75;;;;;;;9.66;41.22;100961.94;7710173;32;37006;-71
2022/03/27 05:43:39;;;;;;;31.45;13.90;;;;;;;9.79;41.15;100975.31;7710227;32;37535;-71
2022/03/27 05:47:56;;;;;;;24.12;12.45;;;;;;;9.95;40.88;100992.81;7710085;32;39091;-72
2022/03/27 05:52:14;;;;;;;27.17;13.62;;;;;;;10.07;40.71;100998.28;7709938;32;40820;-71
2022/03/27 05:56:30;;;;;;;26.23;13.25;;;;;;;10.21;40.52;100996.97;7709828;32;38181;-71
2022/03/27 06:00:46;;;;;;;28.80;13.05;;;;;;;10.15;41.01;100996.00;7709517;32;37289;-72
2022/03/27 06:05:03;;;;;;;27.60;13.35;;;;;;;10.30;40.67;101000.97;7709443;32;40221;-71
2022/03/27 06:09:19;;;;;;;28.83;13.10;;;;;;;10.41;40.55;101002.03;7709383;32;39922;-72
2022/03/27 06:13:35;;;;;;;26.12;13.60;;;;;;;10.55;40.30;101002.59;7709325;32;37990;-71
2022/03/27 06:17:52;;;;;;;26.12;14.68;;;;;;;10.85;39.73;101012.47;7709310;32;36936;-72
2022/03/27 06:22:09;;;;;;;28.87;14.32;;;;;;;11.08;39.11;101015.06;7709101;32;39467;-71
2022/03/27 06:26:25;;;;;;;24.70;14.40;;;;;;;11.25;38.79;101008.81;7709105;32;40869;-72
2022/03/27 06:30:41;;;;;;;28.40;14.18;;;;;;;11.41;38.59;101001.69;7708960;32;38922;-71
2022/03/27 06:34:57;;;;;;;27.90;14.38;;;;;;;11.69;38.24;101019.06;7708908;32;37302;-72
2022/03/27 06:39:15;;;;;;;36.22;14.43;;;;;;;11.68;38.38;101023.72;7708822;32;40103;-72
2022/03/27 06:43:31;;;;;;;27.90;13.52;;;;;;;11.50;39.31;101015.75;7708704;32;39987;-72
2022/03/27 06:47:48;;;;;;;27.23;12.90;;;;;;;11.95;38.57;101028.50;7708437;32;38433;-71
2022/03/27 06:52:06;;;;;;;23.40;12.15;;;;;;;12.03;38.82;101037.09;7708401;32;37639;-71
2022/03/27 06:56:28;;;;;;;23.08;12.75;;;;;;;12.51;38.35;101031.19;7708940;32;37627;-71
2022/03/27 07:05:22;;;;;;;25.98;12.70;;;;;;;12.88;37.86;101041.47;7712263;32;38066;-71
2022/03/27 07:09:41;;;;;;;23.45;13.55;;;;;;;12.79;38.20;101052.03;7712324;32;37279;-72
2022/03/27 07:13:57;;;;;;;23.23;11.85;;;;;;;12.91;38.50;101055.47;7712226;32;39203;-74
2022/03/27 07:18:17;;;;;;;24.98;12.75;;;;;;;12.70;39.38;101053.59;7712093;32;40797;-75
2022/03/27 07:22:33;;;;;;;20.52;11.82;;;;;;;13.03;39.82;101060.81;7712006;32;38006;-73
2022/03/27 07:26:49;;;;;;;21.27;11.38;;;;;;;13.81;37.64;101060.44;7711983;32;37226;-72
2022/03/27 07:31:05;;;;;;;22.35;11.52;;;;;;;13.87;36.67;101062.16;7711959;32;40108;-72
2022/03/27 07:35:21;;;;;;;25.02;12.75;;;;;;;13.98;36.84;101067.72;7711928;32;39939;-71
2022/03/27 07:39:37;;;;;;;22.85;11.32;;;;;;;13.60;36.91;101064.13;7711619;32;38070;-73
2022/03/27 07:43:53;;;;;;;23.62;11.15;;;;;;;13.87;36.90;101048.44;7711940;32;37958;-72
2022/03/27 07:48:09;;;;;;;15.05;9.02;;;;;;;14.43;36.22;101055.34;7711894;32;39404;-72
2022/03/27 07:52:26;;;;;;;19.00;10.48;;;;;;;14.57;35.67;101050.22;7711874;32;40818;-71
2022/03/27 07:56:42;;;;;;;16.00;8.55;;;;;;;14.80;35.05;101054.47;7711742;32;38702;-74
2022/03/27 08:00:58;;;;;;;17.67;8.38;;;;;;;15.17;37.62;101065.25;7711580;32;37835;-73
2022/03/27 08:05:15;;;;;;;13.10;7.62;;;;;;;15.08;35.04;101068.81;7711703;32;40191;-72
2022/03/27 08:09:31;;;;;;;15.75;7.80;;;;;;;14.90;34.73;101065.47;7710462;32;39916;-73
2022/03/27 08:13:47;;;;;;;14.60;8.32;;;;;;;15.45;34.50;101059.53;7710893;32;38642;-72
2022/03/27 08:18:03;;;;;;;18.70;8.82;;;;;;;15.73;33.35;101060.94;7711467;32;37270;-72
2022/03/27 08:22:20;;;;;;;14.98;8.57;;;;;;;15.66;33.73;101052.97;7711504;32;40029;-73
2022/03/27 08:31:11;;;;;;;18.30;8.73;;;;;;;16.33;32.43;101050.13;7712759;32;37911;-71
2022/03/27 08:35:27;;;;;;;14.75;8.15;;;;;;;15.84;33.15;101048.84;7710516;32;37640;-71
2022/03/27 08:39:45;;;;;;;22.95;9.45;;;;;;;15.99;33.21;101042.50;7702474;32;38223;-71
2022/03/27 08:44:01;;;;;;;16.92;9.45;;;;;;;16.00;32.58;101046.87;7709289;32;40849;-72
2022/03/27 08:48:17;;;;;;;16.05;10.27;;;;;;;16.21;32.30;101050.44;7697399;32;37971;-72
2022/03/27 08:52:53;;;;;;;19.42;9.95;;;;;;;16.17;32.11;101045.78;7711097;32;37258;-72
2022/03/27 08:57:34;;;;;;;18.98;11.05;;;;;;;16.34;31.95;101049.03;7710650;32;39469;-72
2022/03/27 09:01:50;;;;;;;20.00;9.88;;;;;;;16.53;31.48;101047.28;7698915;32;40743;-72
2022/03/27 09:06:08;;;;;;;15.60;9.05;;;;;;;16.34;33.46;101047.09;7710722;32;38609;-72
2022/03/27 09:10:29;;;;;;;14.90;8.90;;;;;;;17.12;30.44;101053.09;7710683;32;37139;-72
2022/03/27 09:14:45;;;;;;;16.35;9.13;;;;;;;16.52;31.55;101051.16;7710682;32;40133;-71
2022/03/27 09:19:02;;;;;;;18.67;9.90;;;;;;;16.28;32.02;101061.97;7710722;32;40807;-72
2022/03/27 09:23:30;;;;;;;20.85;9.95;;;;;;;16.73;31.18;101056.59;7710033;32;37987;-73
2022/03/27 09:27:56;;;;;;;18.45;9.27;;;;;;;16.95;30.91;101053.47;7710729;32;37254;-73
2022/03/27 09:32:24;;;;;;;16.08;8.98;;;;;;;17.05;30.49;101042.38;7710710;32;39048;-73
2022/03/27 09:36:43;;;;;;;23.55;9.82;;;;;;;16.94;31.77;101037.25;7698211;32;40482;-72
2022/03/27 09:40:59;;;;;;;16.17;9.57;;;;;;;17.56;30.34;101046.72;7710093;32;38041;-73
2022/03/27 09:45:20;;;;;;;19.02;10.65;;;;;;;17.31;29.77;101044.16;7709946;32;37446;-73
2022/03/27 09:49:37;;;;;;;14.52;9.20;;;;;;;17.38;30.68;101045.47;7710226;32;39102;-73
2022/03/27 09:54:00;;;;;;;15.50;9.10;;;;;;;17.24;29.59;101034.28;7709948;32;40743;-72
2022/03/27 09:58:31;;;;;;;18.20;8.45;;;;;;;17.74;29.38;101044.38;7717100;32;38581;-71
2022/03/27 10:02:49;;;;;;;14.13;7.75;;;;;;;17.73;29.57;101046.31;7736500;32;37167;-73
2022/03/27 10:07:17;;;;;;;13.65;7.18;;;;;;;17.71;28.67;101053.22;7735096;32;40150;-73
2022/03/27 10:11:34;;;;;;;12.13;7.93;;;;;;;17.74;27.97;101058.16;7722232;32;40828;-71
2022/03/27 10:15:54;;;;;;;12.95;6.53;;;;;;;17.60;27.87;101055.25;7736131;32;37931;-72
2022/03/27 10:20:15;;;;;;;13.18;6.68;;;;;;;18.04;27.80;101046.06;7736079;32;37685;-71
2022/03/27 10:24:32;;;;;;;15.68;7.40;;;;;;;18.84;26.53;101046.53;7735983;32;39523;-71
2022/03/27 10:28:50;;;;;;;11.35;6.62;;;;;;;19.04;25.42;101040.72;7722200;32;40577;-72
2022/03/27 10:33:08;;;;;;;10.60;6.78;;;;;;;19.65;24.67;101040.87;7723573;32;37865;-72
2022/03/27 10:37:39;;;;;;;12.88;6.25;;;;;;;20.02;24.56;101036.38;7725281;32;37088;-71
2022/03/27 10:42:08;;;;;;;12.35;6.90;;;;;;;19.99;23.84;101032.28;7726864;32;40298;-71
2022/03/27 10:46:26;;;;;;;10.25;6.07;;;;;;;20.19;23.41;101031.06;7725514;32;40017;-72
2022/03/27 10:50:53;;;;;;;11.55;6.60;;;;;;;20.05;23.58;101030.25;7739281;32;39573;-72
2022/03/27 10:55:14;;;;;;;12.00;6.43;;;;;;;20.19;22.98;101024.72;7739333;32;38635;-71
2022/03/27 10:59:43;;;;;;;9.13;5.18;;;;;;;20.72;22.61;101024.22;7739012;32;39274;-71
2022/03/27 11:04:07;;;;;;;9.35;5.75;;;;;;;20.56;22.35;101018.16;7739088;32;39925;-71
2022/03/27 11:08:25;;;;;;;10.65;6.40;;;;;;;20.93;22.05;101018.22;7738865;32;38885;-71
2022/03/27 11:12:42;;;;;;;9.18;5.47;;;;;;;19.80;22.89;101018.53;7738964;32;38287;-70
2022/03/27 11:17:06;;;;;;;9.90;6.20;;;;;;;20.53;21.52;101013.22;7725269;32;39353;-70
2022/03/27 11:21:29;;;;;;;9.88;6.00;;;;;;;20.02;22.70;101012.31;7738805;32;40962;-71
2022/03/27 11:25:45;;;;;;;9.82;5.70;;;;;;;20.55;22.28;101004.59;7738790;32;38603;-72
2022/03/27 11:30:11;;;;;;;12.93;6.75;;;;;;;20.37;21.61;101000.81;7725094;32;37110;-72
2022/03/27 11:34:28;;;;;;;8.95;5.28;;;;;;;20.68;22.12;100984.41;7738543;32;39275;-73
2022/03/27 11:39:06;;;;;;;7.35;4.97;;;;;;;21.29;20.92;100982.13;7738336;32;39963;-71
2022/03/27 11:43:35;;;;;;;7.12;4.35;;;;;;;21.56;20.62;100984.00;7738014;32;38513;-72
2022/03/27 11:47:53;;;;;;;9.35;5.78;;;;;;;21.69;20.12;100982.25;7738305;32;37019;-71
2022/03/27 11:52:11;;;;;;;10.88;5.70;;;;;;;21.36;20.23;100974.19;7738385;32;38325;-71
2022/03/27 11:56:28;;;;;;;9.85;6.05;;;;;;;21.47;20.23;100974.81;7738581;32;38988;-72
2022/03/27 12:00:45;;;;;;;10.43;5.90;;;;;;;21.97;18.84;100965.41;7738025;32;38063;-77
2022/03/27 12:05:01;;;;;;;8.75;5.55;;;;;;;21.58;19.69;100975.34;7738400;32;37954;-72
2022/03/27 12:09:25;;;;;;;9.57;5.85;;;;;;;22.11;18.41;100965.28;7738439;32;39244;-73
2022/03/27 12:13:44;;;;;;;9.80;5.43;;;;;;;22.39;18.55;100965.91;7738366;32;39077;-72
2022/03/27 12:18:03;;;;;;;11.63;5.82;;;;;;;23.11;17.93;100947.03;7738186;32;37936;-73
2022/03/27 12:22:51;;;;;;;9.20;4.78;;;;;;;22.68;17.79;100947.81;7738087;32;37818;-72
2022/03/27 12:32:05;;;;;;;9.75;5.62;;;;;;;23.63;17.08;100935.78;7728513;32;40788;-72
2022/03/27 12:36:22;;;;;;;7.85;4.97;;;;;;;23.50;16.81;100947.94;7737975;32;37930;-73
2022/03/27 12:40:45;;;;;;;10.15;4.90;;;;;;;22.90;17.13;100951.56;7738196;32;36978;-72
2022/03/27 12:45:08;;;;;;;8.57;5.00;;;;;;;22.99;16.93;100932.91;7737669;32;39353;-72
2022/03/27 12:49:28;;;;;;;8.00;4.50;;;;;;;22.88;17.40;100933.25;7737979;32;40211;-73
2022/03/27 12:53:58;;;;;;;8.25;4.45;;;;;;;23.30;17.00;100924.41;7737946;32;37959;-73
2022/03/27 12:58:34;;;;;;;12.65;4.75;;;;;;;22.90;16.37;100915.44;7736880;32;37106;-72
2022/03/27 13:03:23;;;;;;;7.47;4.62;;;;;;;23.60;16.05;100914.19;7737890;32;39288;-72
2022/03/27 13:07:56;;;;;;;9.25;5.35;;;;;;;23.77;16.16;100912.47;7722128;32;39757;-73
2022/03/27 13:12:12;;;;;;;9.52;4.70;;;;;;;23.88;15.92;100902.63;7723835;32;39110;-73
2022/03/27 13:16:34;;;;;;;8.40;4.95;;;;;;;24.24;14.93;100901.28;7723619;32;37211;-73
2022/03/27 13:20:50;;;;;;;8.47;4.83;;;;;;;24.23;15.08;100893.25;7723354;32;39408;-72
2022/03/27 13:25:07;;;;;;;12.75;4.85;;;;;;;24.44;14.82;100890.47;7737042;32;40032;-72
2022/03/27 13:29:24;;;;;;;8.23;4.60;;;;;;;24.24;15.55;100881.78;7736997;32;38810;-73
2022/03/27 13:33:40;;;;;;;13.52;4.78;;;;;;;24.31;15.36;100881.25;7723642;32;36795;-75
2022/03/27 13:37:57;;;;;;;8.77;4.72;;;;;;;24.05;15.45;100875.84;7723423;32;40114;-75
2022/03/27 13:46:48;;;;;;;8.00;4.70;;;;;;;23.63;15.54;100873.75;7735749;32;38813;-76
2022/03/27 13:51:04;;;;;;;7.80;4.28;;;;;;;23.00;16.52;100873.38;7736995;32;37095;-75
2022/03/27 13:55:21;;;;;;;6.93;4.40;;;;;;;23.91;15.42;100856.59;7736793;32;39464;-76
2022/03/27 13:59:37;;;;;;;8.88;4.50;;;;;;;23.22;15.93;100858.50;7736500;32;40005;-76
2022/03/27 14:03:53;;;;;;;9.93;4.35;;;;;;;23.77;14.84;100854.84;7736080;32;38186;-75
2022/03/27 14:08:09;;;;;;;7.03;4.15;;;;;;;23.34;15.76;100849.47;7738791;32;37312;-76
2022/03/27 14:12:25;;;;;;;10.07;4.53;;;;;;;24.44;15.10;100845.88;7739155;32;39278;-75
2022/03/27 14:16:42;;;;;;;7.80;4.80;;;;;;;24.37;14.66;100841.69;7739797;32;40862;-75
2022/03/27 14:20:58;;;;;;;8.35;4.05;;;;;;;24.66;14.46;100839.97;7739702;32;37855;-76
2022/03/27 14:25:14;;;;;;;7.93;3.90;;;;;;;24.75;13.75;100842.72;7739669;32;37203;-76
2022/03/27 14:29:32;;;;;;;8.40;4.35;;;;;;;24.97;13.60;100832.31;7726209;32;39969;-76
2022/03/27 14:33:48;;;;;;;8.85;3.67;;;;;;;24.24;13.79;100826.06;7739623;32;40009;-76
2022/03/27 14:38:06;;;;;;;8.00;4.37;;;;;;;24.27;14.23;100830.16;7739643;32;37970;-76
2022/03/27 14:42:23;;;;;;;9.43;5.28;;;;;;;23.90;14.14;100818.75;7739507;32;37904;-75
2022/03/27 14:46:39;;;;;;;6.95;4.15;;;;;;;24.70;13.63;100820.63;7739477;32;39401;-78
2022/03/27 14:50:55;;;;;;;7.35;3.97;;;;;;;24.29;13.45;100817.50;7725517;32;40150;-80
2022/03/27 14:59:46;;;;;;;8.30;3.97;;;;;;;23.40;14.10;100817.50;7739322;32;37107;-76
2022/03/27 15:04:03;;;;;;;13.30;5.20;;;;;;;22.89;14.64;100811.75;7739205;32;39576;-76
2022/03/27 15:08:39;;;;;;;7.82;4.30;;;;;;;22.80;15.15;100824.84;7737762;32;40135;-75
2022/03/27 15:12:56;;;;;;;6.53;4.07;;;;;;;23.19;14.65;100812.66;7737624;32;38504;-76
2022/03/27 15:17:12;;;;;;;9.25;4.32;;;;;;;22.64;14.58;100816.19;7737152;32;37099;-76
2022/03/27 15:21:29;;;;;;;7.57;4.25;;;;;;;22.57;15.10;100815.88;7738315;32;40162;-73
2022/03/27 15:25:45;;;;;;;8.57;4.65;;;;;;;21.87;15.79;100822.19;7739054;32;40012;-76
2022/03/27 15:30:01;;;;;;;10.77;4.62;;;;;;;21.86;15.40;100819.72;7738807;32;38994;-73
2022/03/27 15:34:17;;;;;;;8.23;4.50;;;;;;;21.93;15.80;100815.31;7738933;32;37337;-74
2022/03/27 15:38:33;;;;;;;8.25;4.35;;;;;;;21.89;15.21;100819.09;7738998;32;39386;-76
2022/03/27 15:42:50;;;;;;;9.02;4.35;;;;;;;21.88;15.46;100820.22;7738718;32;40091;-75
2022/03/27 15:47:07;;;;;;;6.80;3.62;;;;;;;22.07;15.58;100815.19;7738717;32;38729;-80
2022/03/27 15:51:23;;;;;;;10.98;4.28;;;;;;;22.22;14.84;100815.88;7738799;32;37868;-74
2022/03/27 15:55:39;;;;;;;7.28;4.12;;;;;;;22.23;14.77;100817.47;7738726;32;40224;-73
2022/03/27 15:59:57;;;;;;;10.73;5.05;;;;;;;21.81;15.27;100825.44;7738511;32;39997;-73
2022/03/27 16:04:13;;;;;;;10.82;4.70;;;;;;;22.05;14.93;100822.22;7737804;32;38688;-74
2022/03/27 16:08:29;;;;;;;8.40;4.32;;;;;;;22.06;14.88;100830.22;7738501;32;37257;-74
2022/03/27 16:12:45;;;;;;;11.85;4.37;;;;;;;23.40;13.93;100823.06;7738035;32;39430;-75
2022/03/27 16:17:02;;;;;;;9.50;4.30;;;;;;;26.37;11.03;100820.13;7738384;32;39845;-75
2022/03/27 16:21:19;;;;;;;6.40;4.03;;;;;;;27.85;9.89;100814.47;7737756;32;37340;-74
2022/03/27 16:25:35;;;;;;;9.60;4.53;;;;;;;28.78;8.98;100809.25;7737424;32;37098;-74
2022/03/27 16:29:52;;;;;;;9.75;4.28;;;;;;;29.26;8.65;100814.56;7737350;32;39439;-73
2022/03/27 16:34:08;;;;;;;7.55;4.70;;;;;;;28.64;8.82;100818.22;7737893;32;39987;-74
2022/03/27 16:38:24;;;;;;;8.82;4.55;;;;;;;29.28;8.23;100815.00;7738004;32;38760;-72
2022/03/27 16:42:41;;;;;;;7.50;4.10;;;;;;;29.24;8.56;100806.53;7733665;32;37144;-72
2022/03/27 16:46:57;;;;;;;10.20;4.25;;;;;;;29.16;8.68;100818.81;7736753;32;40078;-73
2022/03/27 16:51:56;;;;;;;9.52;4.62;;;;;;;25.83;11.15;100816.47;7876994;31;155255;-72
2022/03/27 16:56:14;;;;;;;8.85;4.90;;;;;;;25.83;11.15;100816.47;7867320;31;39774;-71
2022/03/27 17:00:31;;;;;;;15.38;5.62;;;;;;;24.51;12.10;100818.31;7866716;31;38550;-72
2022/03/27 17:04:47;;;;;;;9.45;5.28;;;;;;;23.52;12.92;100822.38;7867454;31;37327;-71
2022/03/27 17:09:06;;;;;;;8.70;5.15;;;;;;;22.53;13.76;100820.47;7867352;31;39183;-71
2022/03/27 17:13:22;;;;;;;10.48;5.45;;;;;;;22.17;14.23;100827.13;7866583;31;39918;-71
2022/03/27 17:17:38;;;;;;;11.80;6.60;;;;;;;21.53;15.06;100831.22;7867139;31;38689;-71
2022/03/27 17:21:56;;;;;;;15.20;6.43;;;;;;;21.09;15.53;100825.41;7866779;31;37666;-70
2022/03/27 17:26:12;;;;;;;11.32;5.95;;;;;;;20.62;15.96;100828.53;7865142;31;41219;-70
2022/03/27 17:30:29;;;;;;;11.95;5.07;;;;;;;20.19;16.59;100837.25;7864627;31;40162;-70
2022/03/27 17:34:45;;;;;;;11.85;5.95;;;;;;;20.02;16.92;100834.34;7865211;31;38724;-71
2022/03/27 17:39:02;;;;;;;71.68;34.08;;;;;;;19.73;17.27;100834.63;7866103;31;37722;-71
2022/03/27 17:43:18;;;;;;;64.57;32.05;;;;;;;19.39;18.00;100847.75;7866074;31;39890;-71
2022/03/27 17:47:34;;;;;;;15.20;8.90;;;;;;;19.21;18.78;100845.88;7866356;31;39687;-70
2022/03/27 17:51:52;;;;;;;19.73;9.10;;;;;;;18.81;19.18;100853.72;7866171;31;37900;-70
2022/03/27 17:56:08;;;;;;;14.93;7.72;;;;;;;18.58;18.68;100861.81;7853613;31;37059;-70
2022/03/27 18:00:24;;;;;;;26.30;13.75;;;;;;;18.30;19.19;100858.91;7861209;31;39157;-71
2022/03/27 18:04:40;;;;;;;18.58;10.35;;;;;;;18.08;19.15;100858.66;7847999;31;39856;-71
2022/03/27 18:08:56;;;;;;;16.67;8.27;;;;;;;17.87;19.79;100858.91;7847775;31;37978;-70
2022/03/27 18:13:12;;;;;;;12.05;6.55;;;;;;;17.79;19.69;100854.84;7847682;31;37693;-71
2022/03/27 18:17:28;;;;;;;13.50;7.80;;;;;;;17.64;19.89;100863.28;7847216;31;39225;-71
2022/03/27 18:21:45;;;;;;;13.13;7.45;;;;;;;17.26;20.38;100871.41;7847373;31;40792;-71
2022/03/27 18:26:14;;;;;;;11.90;7.28;;;;;;;17.04;20.85;100874.63;7847567;31;38728;-72
2022/03/27 18:30:30;;;;;;;11.00;6.75;;;;;;;16.96;21.12;100873.31;7846638;31;36837;-72
2022/03/27 18:34:46;;;;;;;10.75;6.22;;;;;;;16.78;21.60;100872.06;7847018;31;39061;-72
2022/03/27 18:39:03;;;;;;;15.15;7.25;;;;;;;16.50;21.75;100877.19;7846198;31;40480;-72
2022/03/27 18:43:19;;;;;;;15.18;7.53;;;;;;;16.35;21.96;100885.56;7847249;31;38745;-74
2022/03/27 18:47:35;;;;;;;13.50;7.28;;;;;;;16.05;22.40;100890.09;7847426;31;37008;-74
2022/03/27 18:51:51;;;;;;;13.60;8.00;;;;;;;15.94;22.86;100885.75;7841190;31;39078;-73
2022/03/27 18:56:08;;;;;;;11.88;7.40;;;;;;;15.80;23.44;100895.69;7846443;31;40018;-73
2022/03/27 19:00:24;;;;;;;12.45;6.28;;;;;;;15.79;23.45;100889.38;7847460;31;37923;-72
2022/03/27 19:04:40;;;;;;;9.70;5.43;;;;;;;15.42;23.62;100895.19;7847687;31;37020;-73
2022/03/27 19:08:57;;;;;;;15.93;7.15;;;;;;;15.25;23.59;100890.84;7847558;31;39969;-73
2022/03/27 19:13:16;;;;;;;13.23;6.60;;;;;;;15.20;23.77;100899.09;7846587;31;39937;-73
2022/03/27 19:17:32;;;;;;;12.40;6.25;;;;;;;14.95;24.54;100898.00;7846698;31;37944;-73
2022/03/27 19:21:52;;;;;;;39.25;7.80;;;;;;;14.86;24.75;100899.62;7847583;31;37722;-72
2022/03/27 19:26:09;;;;;;;16.52;6.53;;;;;;;14.86;25.11;100902.38;7847570;31;39977;-72
2022/03/27 19:30:25;;;;;;;20.00;9.48;;;;;;;14.61;25.45;100908.66;7847123;31;39933;-73
2022/03/27 19:34:42;;;;;;;11.30;6.95;;;;;;;14.56;25.13;100909.44;7847359;31;37722;-72
2022/03/27 19:38:58;;;;;;;14.95;7.75;;;;;;;14.34;25.43;100908.84;7847104;31;38100;-73
2022/03/27 19:43:14;;;;;;;12.25;6.80;;;;;;;14.48;25.44;100915.44;7847257;31;38822;-73
2022/03/27 19:47:30;;;;;;;10.10;5.82;;;;;;;14.28;25.68;100917.06;7847041;31;40562;-73
2022/03/27 19:51:46;;;;;;;15.30;7.90;;;;;;;14.35;25.56;100916.81;7846667;31;38559;-73
2022/03/27 19:56:02;;;;;;;16.27;8.05;;;;;;;14.13;25.85;100927.97;7846640;31;36632;-73
2022/03/27 20:00:19;;;;;;;11.45;6.80;;;;;;;14.23;25.57;100916.22;7846720;31;39844;-73
2022/03/27 20:04:35;;;;;;;13.20;6.40;;;;;;;13.93;26.44;100919.63;7846301;31;40798;-72
2022/03/27 20:08:51;;;;;;;17.10;7.32;;;;;;;13.87;26.28;100916.06;7846466;31;37940;-72